sensor_id;sensor_type;location;lat;lon;timestamp;pressure;altitude;pressure_sealevel;temperature;humidity
69784;BME280;57054;51.978;4.498;2023-08-01T00:00:38;99916.56;;;16.12;100.00
69784;BME280;57054;51.978;4.498;2023-08-01T00:03:04;99912.13;;;16.12;100.00
69784;BME280;57054;51.978;4.498;2023-08-01T00:05:29;99913.06;;;16.11;100.00
69784;BME280;57054;51.978;4.498;2023-08-01T00:07:54;99908.78;;;16.10;100.00
69784;BME280;57054;51.978;4.498;2023-08-01T00:10:20;99907.94;;;16.10;100.00
69784;BME280;57054;51.978;4.498;2023-08-01T00:12:46;99908.88;;;16.09;100.00
69784;BME280;57054;51.978;4.498;2023-08-01T00:15:12;99898.44;;;16.07;100.00
69784;BME280;57054;51.978;4.498;2023-08-01T00:17:37;99898.56;;;16.06;100.00
69784;BME280;57054;51.978;4.498;2023-08-01T00:20:03;99895.91;;;16.06;100.00
69784;BME280;57054;51.978;4.498;2023-08-01T00:22:29;99889.81;;;16.05;100.00
69784;BME280;57054;51.978;4.498;2023-08-01T00:24:55;99877.53;;;16.04;100.00
69784;BME280;57054;51.978;4.498;2023-08-01T00:27:20;99876.72;;;16.04;100.00
69784;BME280;57054;51.978;4.498;2023-08-01T00:29:46;99867.13;;;16.03;100.00
69784;BME280;57054;51.978;4.498;2023-08-01T00:32:11;99868.91;;;16.02;100.00
69784;BME280;57054;51.978;4.498;2023-08-01T00:34:37;99863.63;;;16.02;100.00
69784;BME280;57054;51.978;4.498;2023-08-01T00:37:02;99858.47;;;16.01;100.00
69784;BME280;57054;51.978;4.498;2023-08-01T00:39:27;99857.75;;;15.99;100.00
69784;BME280;57054;51.978;4.498;2023-08-01T00:41:53;99856.78;;;16.00;100.00
69784;BME280;57054;51.978;4.498;2023-08-01T00:44:18;99856.91;;;15.98;100.00
69784;BME280;57054;51.978;4.498;2023-08-01T00:46:44;99863.03;;;15.99;100.00
69784;BME280;57054;51.978;4.498;2023-08-01T00:49:09;99861.38;;;15.98;100.00
69784;BME280;57054;51.978;4.498;2023-08-01T00:51:35;99858.72;;;15.98;100.00
69784;BME280;57054;51.978;4.498;2023-08-01T00:54:01;99854.38;;;15.97;100.00
69784;BME280;57054;51.978;4.498;2023-08-01T00:56:26;99861.47;;;15.96;100.00
69784;BME280;57054;51.978;4.498;2023-08-01T00:58:52;99856.31;;;15.95;100.00
69784;BME280;57054;51.978;4.498;2023-08-01T01:06:51;99848.50;;;15.93;100.00
69784;BME280;57054;51.978;4.498;2023-08-01T01:09:19;99845.03;;;15.92;100.00
69784;BME280;57054;51.978;4.498;2023-08-01T01:11:46;99850.31;;;15.92;100.00
69784;BME280;57054;51.978;4.498;2023-08-01T01:14:12;99845.03;;;15.92;100.00
69784;BME280;57054;51.978;4.498;2023-08-01T01:16:37;99850.31;;;15.92;100.00
69784;BME280;57054;51.978;4.498;2023-08-01T01:19:06;99854.78;;;15.92;100.00
69784;BME280;57054;51.978;4.498;2023-08-01T01:21:34;99846.84;;;15.92;100.00
69784;BME280;57054;51.978;4.498;2023-08-01T01:24:00;99840.69;;;15.91;100.00
69784;BME280;57054;51.978;4.498;2023-08-01T01:26:28;99845.03;;;15.92;100.00
69784;BME280;57054;51.978;4.498;2023-08-01T01:28:54;99845.16;;;15.91;100.00
69784;BME280;57054;51.978;4.498;2023-08-01T01:31:20;99845.16;;;15.91;100.00
69784;BME280;57054;51.978;4.498;2023-08-01T01:33:45;99844.31;;;15.90;100.00
69784;BME280;57054;51.978;4.498;2023-08-01T01:36:11;99846.97;;;15.90;100.00
69784;BME280;57054;51.978;4.498;2023-08-01T01:38:36;99840.84;;;15.90;100.00
69784;BME280;57054;51.978;4.498;2023-08-01T01:41:02;99842.63;;;15.89;100.00
69784;BME280;57054;51.978;4.498;2023-08-01T01:43:27;99844.44;;;15.89;100.00
69784;BME280;57054;51.978;4.498;2023-08-01T01:45:52;99840.09;;;15.88;100.00
69784;BME280;57054;51.978;4.498;2023-08-01T01:48:18;99838.31;;;15.88;100.00
69784;BME280;57054;51.978;4.498;2023-08-01T01:50:43;99841.91;;;15.87;100.00
69784;BME280;57054;51.978;4.498;2023-08-01T01:53:09;99835.69;;;15.88;100.00
69784;BME280;57054;51.978;4.498;2023-08-01T01:55:34;99836.53;;;15.89;100.00
69784;BME280;57054;51.978;4.498;2023-08-01T01:58:00;99836.53;;;15.89;100.00
69784;BME280;57054;51.978;4.498;2023-08-01T02:00:25;99840.00;;;15.89;100.00
69784;BME280;57054;51.978;4.498;2023-08-01T02:02:50;99838.31;;;15.88;100.00
69784;BME280;57054;51.978;4.498;2023-08-01T02:05:16;99836.53;;;15.89;100.00
69784;BME280;57054;51.978;4.498;2023-08-01T02:07:41;99833.88;;;15.89;100.00
69784;BME280;57054;51.978;4.498;2023-08-01T02:10:07;99830.41;;;15.88;100.00
69784;BME280;57054;51.978;4.498;2023-08-01T02:12:32;99830.41;;;15.88;100.00
69784;BME280;57054;51.978;4.498;2023-08-01T02:15:00;99829.44;;;15.89;100.00
69784;BME280;57054;51.978;4.498;2023-08-01T02:17:25;99825.84;;;15.90;100.00
69784;BME280;57054;51.978;4.498;2023-08-01T02:19:51;99821.50;;;15.89;100.00
69784;BME280;57054;51.978;4.498;2023-08-01T02:22:16;99825.00;;;15.90;100.00
69784;BME280;57054;51.978;4.498;2023-08-01T02:24:42;99823.19;;;15.90;100.00
69784;BME280;57054;51.978;4.498;2023-08-01T02:27:07;99823.19;;;15.90;100.00
69784;BME280;57054;51.978;4.498;2023-08-01T02:29:33;99820.56;;;15.90;100.00
69784;BME280;57054;51.978;4.498;2023-08-01T02:31:59;99820.56;;;15.90;100.00
69784;BME280;57054;51.978;4.498;2023-08-01T02:34:24;99818.75;;;15.91;100.00
69784;BME280;57054;51.978;4.498;2023-08-01T02:36:49;99825.84;;;15.90;100.00
69784;BME280;57054;51.978;4.498;2023-08-01T02:39:15;99826.66;;;15.91;100.00
69784;BME280;57054;51.978;4.498;2023-08-01T02:41:40;99824.03;;;15.91;100.00
69784;BME280;57054;51.978;4.498;2023-08-01T02:44:06;99826.66;;;15.91;100.00
69784;BME280;57054;51.978;4.498;2023-08-01T02:46:31;99817.91;;;15.90;100.00
69784;BME280;57054;51.978;4.498;2023-08-01T02:48:56;99831.13;;;15.90;100.00
69784;BME280;57054;51.978;4.498;2023-08-01T02:51:22;99823.19;;;15.90;100.00
69784;BME280;57054;51.978;4.498;2023-08-01T02:53:48;99831.94;;;15.91;100.00
69784;BME280;57054;51.978;4.498;2023-08-01T02:56:13;99831.94;;;15.91;100.00
69784;BME280;57054;51.978;4.498;2023-08-01T02:58:38;99829.31;;;15.91;100.00
69784;BME280;57054;51.978;4.498;2023-08-01T03:01:07;99829.31;;;15.91;100.00
69784;BME280;57054;51.978;4.498;2023-08-01T03:03:35;99836.41;;;15.90;100.00
69784;BME280;57054;51.978;4.498;2023-08-01T03:06:01;99818.75;;;15.91;100.00
69784;BME280;57054;51.978;4.498;2023-08-01T03:08:26;99825.00;;;15.90;100.00
69784;BME280;57054;51.978;4.498;2023-08-01T03:10:53;99832.94;;;15.90;100.00
69784;BME280;57054;51.978;4.498;2023-08-01T03:13:19;99833.75;;;15.90;100.00
69784;BME280;57054;51.978;4.498;2023-08-01T03:15:44;99830.28;;;15.90;100.00
69784;BME280;57054;51.978;4.498;2023-08-01T03:18:10;99834.72;;;15.89;100.00
69784;BME280;57054;51.978;4.498;2023-08-01T03:20:35;99833.03;;;15.88;100.00
69784;BME280;57054;51.978;4.498;2023-08-01T03:23:01;99836.53;;;15.89;100.00
69784;BME280;57054;51.978;4.498;2023-08-01T03:25:27;99830.41;;;15.88;100.00
69784;BME280;57054;51.978;4.498;2023-08-01T03:27:52;99840.97;;;15.88;100.00
69784;BME280;57054;51.978;4.498;2023-08-01T03:30:19;99848.03;;;15.88;100.00
69784;BME280;57054;51.978;4.498;2023-08-01T03:32:46;99847.19;;;15.87;100.00
69784;BME280;57054;51.978;4.498;2023-08-01T03:35:11;99843.72;;;15.87;100.00
69784;BME280;57054;51.978;4.498;2023-08-01T03:37:39;99849.84;;;15.87;100.00
69784;BME280;57054;51.978;4.498;2023-08-01T03:40:05;99845.53;;;15.86;100.00
69784;BME280;57054;51.978;4.498;2023-08-01T03:42:34;99850.66;;;15.88;100.00
69784;BME280;57054;51.978;4.498;2023-08-01T03:44:59;99850.66;;;15.88;100.00
69784;BME280;57054;51.978;4.498;2023-08-01T03:47:24;99849.13;;;15.85;100.00
69784;BME280;57054;51.978;4.498;2023-08-01T03:49:50;99859.56;;;15.87;100.00
69784;BME280;57054;51.978;4.498;2023-08-01T03:52:15;99862.19;;;15.87;100.00
69784;BME280;57054;51.978;4.498;2023-08-01T03:54:40;99854.28;;;15.87;100.00
69784;BME280;57054;51.978;4.498;2023-08-01T03:57:06;99845.53;;;15.86;100.00
69784;BME280;57054;51.978;4.498;2023-08-01T03:59:31;99853.44;;;15.86;100.00
69784;BME280;57054;51.978;4.498;2023-08-01T04:01:56;99853.44;;;15.86;100.00
69784;BME280;57054;51.978;4.498;2023-08-01T04:04:22;99852.59;;;15.86;100.00
69784;BME280;57054;51.978;4.498;2023-08-01T04:06:48;99849.13;;;15.85;100.00
69784;BME280;57054;51.978;4.498;2023-08-01T04:09:13;99849.13;;;15.85;100.00
69784;BME280;57054;51.978;4.498;2023-08-01T04:11:39;99849.13;;;15.85;100.00
69784;BME280;57054;51.978;4.498;2023-08-01T04:14:04;99851.88;;;15.84;100.00
69784;BME280;57054;51.978;4.498;2023-08-01T04:16:29;99847.44;;;15.84;100.00
69784;BME280;57054;51.978;4.498;2023-08-01T04:18:55;99850.06;;;15.84;100.00
69784;BME280;57054;51.978;4.498;2023-08-01T04:21:20;99847.44;;;15.84;100.00
69784;BME280;57054;51.978;4.498;2023-08-01T04:23:46;99847.44;;;15.84;100.00
69784;BME280;57054;51.978;4.498;2023-08-01T04:26:11;99852.72;;;15.84;100.00
69784;BME280;57054;51.978;4.498;2023-08-01T04:28:36;99844.78;;;15.84;100.00
69784;BME280;57054;51.978;4.498;2023-08-01T04:31:02;99844.94;;;15.83;100.00
69784;BME280;57054;51.978;4.498;2023-08-01T04:33:28;99838.78;;;15.82;100.00
69784;BME280;57054;51.978;4.498;2023-08-01T04:35:53;99844.06;;;15.82;100.00
69784;BME280;57054;51.978;4.498;2023-08-01T04:38:19;99848.53;;;15.82;100.00
69784;BME280;57054;51.978;4.498;2023-08-01T04:40:44;99842.41;;;15.81;100.00
69784;BME280;57054;51.978;4.498;2023-08-01T04:43:11;99848.63;;;15.80;100.00
69784;BME280;57054;51.978;4.498;2023-08-01T04:45:36;99852.97;;;15.81;100.00
69784;BME280;57054;51.978;4.498;2023-08-01T04:48:02;99850.44;;;15.80;100.00
69784;BME280;57054;51.978;4.498;2023-08-01T04:50:27;99850.44;;;15.80;100.00
69784;BME280;57054;51.978;4.498;2023-08-01T04:52:53;99854.88;;;15.79;100.00
69784;BME280;57054;51.978;4.498;2023-08-01T04:55:18;99857.53;;;15.79;100.00
69784;BME280;57054;51.978;4.498;2023-08-01T04:57:43;99854.88;;;15.79;100.00
69784;BME280;57054;51.978;4.498;2023-08-01T05:00:10;99858.47;;;15.78;100.00
69784;BME280;57054;51.978;4.498;2023-08-01T05:02:36;99852.38;;;15.78;100.00
69784;BME280;57054;51.978;4.498;2023-08-01T05:05:01;99858.47;;;15.78;100.00
69784;BME280;57054;51.978;4.498;2023-08-01T05:07:27;99855.00;;;15.78;100.00
69784;BME280;57054;51.978;4.498;2023-08-01T05:09:52;99858.47;;;15.78;100.00
69784;BME280;57054;51.978;4.498;2023-08-01T05:12:18;99855.94;;;15.77;100.00
69784;BME280;57054;51.978;4.498;2023-08-01T05:14:43;99856.81;;;15.77;100.00
69784;BME280;57054;51.978;4.498;2023-08-01T05:17:08;99850.78;;;15.75;100.00
69784;BME280;57054;51.978;4.498;2023-08-01T05:19:34;99851.66;;;15.76;100.00
69784;BME280;57054;51.978;4.498;2023-08-01T05:21:59;99853.44;;;15.75;100.00
69784;BME280;57054;51.978;4.498;2023-08-01T05:24:24;99850.78;;;15.75;100.00
69784;BME280;57054;51.978;4.498;2023-08-01T05:26:50;99854.41;;;15.74;100.00
69784;BME280;57054;51.978;4.498;2023-08-01T05:29:15;99848.25;;;15.73;100.00
69784;BME280;57054;51.978;4.498;2023-08-01T05:31:40;99852.69;;;15.73;100.00
69784;BME280;57054;51.978;4.498;2023-08-01T05:34:06;99860.59;;;15.73;100.00
69784;BME280;57054;51.978;4.498;2023-08-01T05:36:31;99857.13;;;15.72;100.00
69784;BME280;57054;51.978;4.498;2023-08-01T05:38:57;99861.56;;;15.72;100.00
69784;BME280;57054;51.978;4.498;2023-08-01T05:41:22;99869.50;;;15.72;100.00
69784;BME280;57054;51.978;4.498;2023-08-01T05:43:49;99871.28;;;15.71;100.00
69784;BME280;57054;51.978;4.498;2023-08-01T05:46:14;99875.72;;;15.71;100.00
69784;BME280;57054;51.978;4.498;2023-08-01T05:48:40;99876.56;;;15.71;100.00
69784;BME280;57054;51.978;4.498;2023-08-01T05:51:05;99875.72;;;15.71;100.00
69784;BME280;57054;51.978;4.498;2023-08-01T05:53:31;99873.91;;;15.71;100.00
69784;BME280;57054;51.978;4.498;2023-08-01T05:55:56;99874.78;;;15.72;100.00
69784;BME280;57054;51.978;4.498;2023-08-01T05:58:22;99879.19;;;15.71;100.00
69784;BME280;57054;51.978;4.498;2023-08-01T06:00:47;99882.69;;;15.72;100.00
69784;BME280;57054;51.978;4.498;2023-08-01T06:03:12;99880.06;;;15.72;100.00
69784;BME280;57054;51.978;4.498;2023-08-01T06:05:38;99880.88;;;15.72;100.00
69784;BME280;57054;51.978;4.498;2023-08-01T06:08:06;99885.31;;;15.72;100.00
69784;BME280;57054;51.978;4.498;2023-08-01T06:10:32;99882.56;;;15.73;100.00
69784;BME280;57054;51.978;4.498;2023-08-01T06:12:57;99885.22;;;15.73;100.00
69784;BME280;57054;51.978;4.498;2023-08-01T06:15:23;99882.56;;;15.73;100.00
69784;BME280;57054;51.978;4.498;2023-08-01T06:17:48;99884.28;;;15.74;100.00
69784;BME280;57054;51.978;4.498;2023-08-01T06:20:13;99888.72;;;15.74;100.00
69784;BME280;57054;51.978;4.498;2023-08-01T06:22:39;99888.72;;;15.74;100.00
69784;BME280;57054;51.978;4.498;2023-08-01T06:25:05;99890.38;;;15.75;100.00
69784;BME280;57054;51.978;4.498;2023-08-01T06:27:31;99894.72;;;15.76;100.00
69784;BME280;57054;51.978;4.498;2023-08-01T06:29:56;99893.78;;;15.77;100.00
69784;BME280;57054;51.978;4.498;2023-08-01T06:32:22;99896.41;;;15.77;100.00
69784;BME280;57054;51.978;4.498;2023-08-01T06:34:47;99895.44;;;15.78;100.00
69784;BME280;57054;51.978;4.498;2023-08-01T06:37:12;99906.81;;;15.79;100.00
69784;BME280;57054;51.978;4.498;2023-08-01T06:39:38;99898.91;;;15.79;100.00
69784;BME280;57054;51.978;4.498;2023-08-01T06:42:03;99899.88;;;15.78;100.00
69784;BME280;57054;51.978;4.498;2023-08-01T06:44:29;99899.88;;;15.78;100.00
69784;BME280;57054;51.978;4.498;2023-08-01T06:46:54;99903.34;;;15.78;100.00
69784;BME280;57054;51.978;4.498;2023-08-01T06:49:20;99920.03;;;15.79;100.00
69784;BME280;57054;51.978;4.498;2023-08-01T06:51:45;99910.31;;;15.79;100.00
69784;BME280;57054;51.978;4.498;2023-08-01T06:54:11;99912.09;;;15.79;100.00
69784;BME280;57054;51.978;4.498;2023-08-01T06:56:36;99924.47;;;15.78;100.00
69784;BME280;57054;51.978;4.498;2023-08-01T06:59:01;99920.03;;;15.79;100.00
69784;BME280;57054;51.978;4.498;2023-08-01T07:01:27;99923.53;;;15.79;100.00
69784;BME280;57054;51.978;4.498;2023-08-01T07:03:52;99919.06;;;15.80;100.00
69784;BME280;57054;51.978;4.498;2023-08-01T07:06:18;99933.13;;;15.80;100.00
69784;BME280;57054;51.978;4.498;2023-08-01T07:08:43;99925.06;;;15.82;100.00
69784;BME280;57054;51.978;4.498;2023-08-01T07:11:09;99933.81;;;15.82;100.00
69784;BME280;57054;51.978;4.498;2023-08-01T07:13:34;99928.44;;;15.84;100.00
69784;BME280;57054;51.978;4.498;2023-08-01T07:15:59;99937.19;;;15.84;100.00
69784;BME280;57054;51.978;4.498;2023-08-01T07:18:25;99945.00;;;15.86;100.00
69784;BME280;57054;51.978;4.498;2023-08-01T07:21:03;99931.78;;;15.86;100.00
69784;BME280;57054;51.978;4.498;2023-08-01T07:23:30;99942.34;;;15.86;100.00
69784;BME280;57054;51.978;4.498;2023-08-01T07:25:55;99939.72;;;15.86;100.00
69784;BME280;57054;51.978;4.498;2023-08-01T07:28:21;99938.88;;;15.85;100.00
69784;BME280;57054;51.978;4.498;2023-08-01T07:30:47;99953.63;;;15.88;100.00
69784;BME280;57054;51.978;4.498;2023-08-01T07:33:12;99949.22;;;15.88;100.00
69784;BME280;57054;51.978;4.498;2023-08-01T07:35:37;99943.94;;;15.88;100.00
69784;BME280;57054;51.978;4.498;2023-08-01T07:38:03;99950.03;;;15.89;100.00
69784;BME280;57054;51.978;4.498;2023-08-01T07:40:28;99956.16;;;15.89;100.00
69784;BME280;57054;51.978;4.498;2023-08-01T07:42:53;99958.81;;;15.89;100.00
69784;BME280;57054;51.978;4.498;2023-08-01T07:45:19;99949.94;;;15.90;100.00
69784;BME280;57054;51.978;4.498;2023-08-01T07:47:45;99955.94;;;15.92;100.00
69784;BME280;57054;51.978;4.498;2023-08-01T07:50:10;99949.72;;;15.93;100.00
69784;BME280;57054;51.978;4.498;2023-08-01T07:52:36;99954.00;;;15.95;100.00
69784;BME280;57054;51.978;4.498;2023-08-01T07:55:01;99952.19;;;15.95;100.00
69784;BME280;57054;51.978;4.498;2023-08-01T07:57:27;99955.72;;;15.96;100.00
69784;BME280;57054;51.978;4.498;2023-08-01T07:59:52;99953.06;;;15.96;100.00
69784;BME280;57054;51.978;4.498;2023-08-01T08:02:18;99962.66;;;15.97;100.00
69784;BME280;57054;51.978;4.498;2023-08-01T08:04:43;99952.97;;;15.97;100.00
69784;BME280;57054;51.978;4.498;2023-08-01T08:07:08;99967.81;;;15.98;100.00
69784;BME280;57054;51.978;4.498;2023-08-01T08:09:34;99970.34;;;16.00;100.00
69784;BME280;57054;51.978;4.498;2023-08-01T08:11:59;99963.16;;;16.02;100.00
69784;BME280;57054;51.978;4.498;2023-08-01T08:14:26;99978.88;;;16.03;100.00
69784;BME280;57054;51.978;4.498;2023-08-01T08:16:51;99965.56;;;16.05;100.00
69784;BME280;57054;51.978;4.498;2023-08-01T08:19:16;99964.56;;;16.06;100.00
69784;BME280;57054;51.978;4.498;2023-08-01T08:21:42;99967.09;;;16.07;100.00
69784;BME280;57054;51.978;4.498;2023-08-01T08:24:07;99975.03;;;16.07;100.00
69784;BME280;57054;51.978;4.498;2023-08-01T08:26:33;99979.38;;;16.08;100.00
69784;BME280;57054;51.978;4.498;2023-08-01T08:29:03;99977.56;;;16.09;100.00
69784;BME280;57054;51.978;4.498;2023-08-01T08:31:30;99980.19;;;16.09;100.00
69784;BME280;57054;51.978;4.498;2023-08-01T08:33:55;99982.13;;;16.07;100.00
69784;BME280;57054;51.978;4.498;2023-08-01T08:36:21;99992.81;;;16.05;100.00
69784;BME280;57054;51.978;4.498;2023-08-01T08:38:46;99992.91;;;16.04;100.00
69784;BME280;57054;51.978;4.498;2023-08-01T08:41:21;99985.97;;;16.03;100.00
69784;BME280;57054;51.978;4.498;2023-08-01T08:43:48;99989.44;;;16.03;100.00
69784;BME280;57054;51.978;4.498;2023-08-01T08:46:15;99991.25;;;16.03;100.00
69784;BME280;57054;51.978;4.498;2023-08-01T08:48:41;99989.44;;;16.03;100.00
69784;BME280;57054;51.978;4.498;2023-08-01T08:51:07;99998.91;;;16.06;100.00
69784;BME280;57054;51.978;4.498;2023-08-01T08:53:33;99997.97;;;16.07;100.00
69784;BME280;57054;51.978;4.498;2023-08-01T08:56:00;99996.88;;;16.09;100.00
69784;BME280;57054;51.978;4.498;2023-08-01T08:58:29;99982.63;;;16.12;100.00
69784;BME280;57054;51.978;4.498;2023-08-01T09:00:55;99994.84;;;16.13;100.00
69784;BME280;57054;51.978;4.498;2023-08-01T09:03:21;99988.72;;;16.12;100.00
69784;BME280;57054;51.978;4.498;2023-08-01T09:05:50;99993.28;;;16.10;100.00
69784;BME280;57054;51.978;4.498;2023-08-01T09:08:21;99991.47;;;16.11;100.00
69784;BME280;57054;51.978;4.498;2023-08-01T09:10:47;99998.56;;;16.10;100.00
69784;BME280;57054;51.978;4.498;2023-08-01T09:13:13;100001.22;;;16.10;100.00
69784;BME280;57054;51.978;4.498;2023-08-01T09:15:40;99998.47;;;16.12;100.00
69784;BME280;57054;51.978;4.498;2023-08-01T09:18:07;100001.94;;;16.12;100.00
69784;BME280;57054;51.978;4.498;2023-08-01T09:20:45;100005.28;;;16.15;100.00
69784;BME280;57054;51.978;4.498;2023-08-01T09:23:11;100006.88;;;16.17;100.00
69784;BME280;57054;51.978;4.498;2023-08-01T09:25:37;100012.00;;;16.19;100.00
69784;BME280;57054;51.978;4.498;2023-08-01T09:28:03;100003.84;;;16.22;100.00
69784;BME280;57054;51.978;4.498;2023-08-01T09:30:28;100009.03;;;16.23;100.00
69784;BME280;57054;51.978;4.498;2023-08-01T09:32:55;100007.22;;;16.24;100.00
69784;BME280;57054;51.978;4.498;2023-08-01T09:35:21;100008.91;;;16.25;100.00
69784;BME280;57054;51.978;4.498;2023-08-01T09:37:47;100017.66;;;16.25;100.00
69784;BME280;57054;51.978;4.498;2023-08-01T09:40:14;100020.19;;;16.27;100.00
69784;BME280;57054;51.978;4.498;2023-08-01T09:42:41;100014.81;;;16.28;100.00
69784;BME280;57054;51.978;4.498;2023-08-01T09:45:16;100027.75;;;16.31;100.00
69784;BME280;57054;51.978;4.498;2023-08-01T09:47:43;100024.03;;;16.34;100.00
69784;BME280;57054;51.978;4.498;2023-08-01T09:50:09;100032.56;;;16.38;100.00
69784;BME280;57054;51.978;4.498;2023-08-01T09:52:36;100024.53;;;16.39;100.00
69784;BME280;57054;51.978;4.498;2023-08-01T09:55:01;100026.19;;;16.40;100.00
69784;BME280;57054;51.978;4.498;2023-08-01T09:57:30;100039.06;;;16.45;100.00
69784;BME280;57054;51.978;4.498;2023-08-01T09:59:56;100034.50;;;16.47;100.00
69784;BME280;57054;51.978;4.498;2023-08-01T10:02:24;100044.84;;;16.50;99.95
69784;BME280;57054;51.978;4.498;2023-08-01T10:04:52;100038.69;;;16.49;99.59
69784;BME280;57054;51.978;4.498;2023-08-01T10:07:21;100035.22;;;16.49;99.39
69784;BME280;57054;51.978;4.498;2023-08-01T10:09:49;100038.56;;;16.51;99.22
69784;BME280;57054;51.978;4.498;2023-08-01T10:12:17;100043.75;;;16.53;99.05
69784;BME280;57054;51.978;4.498;2023-08-01T10:14:43;100036.66;;;16.53;99.13
69784;BME280;57054;51.978;4.498;2023-08-01T10:17:10;100044.47;;;16.55;98.63
69784;BME280;57054;51.978;4.498;2023-08-01T10:19:37;100046.16;;;16.56;98.80
69784;BME280;57054;51.978;4.498;2023-08-01T10:22:04;100037.38;;;16.55;98.54
69784;BME280;57054;51.978;4.498;2023-08-01T10:24:31;100046.03;;;16.57;98.62
69784;BME280;57054;51.978;4.498;2023-08-01T10:27:10;100045.19;;;16.57;98.57
69784;BME280;57054;51.978;4.498;2023-08-01T10:29:36;100039.91;;;16.57;98.66
69784;BME280;57054;51.978;4.498;2023-08-01T10:32:02;100040.75;;;16.57;98.96
69784;BME280;57054;51.978;4.498;2023-08-01T10:34:27;100045.78;;;16.60;98.94
69784;BME280;57054;51.978;4.498;2023-08-01T10:36:57;100056.25;;;16.62;98.70
69784;BME280;57054;51.978;4.498;2023-08-01T10:39:24;100058.78;;;16.63;98.55
69784;BME280;57054;51.978;4.498;2023-08-01T10:42:03;100051.56;;;16.65;98.08
69784;BME280;57054;51.978;4.498;2023-08-01T10:44:30;100059.59;;;16.64;97.46
69784;BME280;57054;51.978;4.498;2023-08-01T10:47:03;100063.22;;;16.63;97.43
69784;BME280;57054;51.978;4.498;2023-08-01T10:49:40;100078.22;;;16.62;97.34
69784;BME280;57054;51.978;4.498;2023-08-01T10:52:22;100066.81;;;16.62;97.51
69784;BME280;57054;51.978;4.498;2023-08-01T10:55:04;100063.47;;;16.60;97.88
69784;BME280;57054;51.978;4.498;2023-08-01T10:57:31;100079.31;;;16.60;98.30
69784;BME280;57054;51.978;4.498;2023-08-01T10:59:58;100079.31;;;16.60;98.59
69784;BME280;57054;51.978;4.498;2023-08-01T11:02:26;100080.25;;;16.59;98.64
69784;BME280;57054;51.978;4.498;2023-08-01T11:05:02;100083.78;;;16.59;98.68
69784;BME280;57054;51.978;4.498;2023-08-01T11:07:28;100075.94;;;16.58;98.83
69784;BME280;57054;51.978;4.498;2023-08-01T11:10:10;100090.00;;;16.58;98.72
69784;BME280;57054;51.978;4.498;2023-08-01T11:12:38;100081.34;;;16.56;98.62
69784;BME280;57054;51.978;4.498;2023-08-01T11:15:08;100097.31;;;16.55;98.50
69784;BME280;57054;51.978;4.498;2023-08-01T11:17:39;100105.25;;;16.55;98.20
69784;BME280;57054;51.978;4.498;2023-08-01T11:20:06;100093.97;;;16.53;97.93
69784;BME280;57054;51.978;4.498;2023-08-01T11:22:33;100101.06;;;16.52;97.73
69784;BME280;57054;51.978;4.498;2023-08-01T11:24:58;100104.53;;;16.53;97.90
69784;BME280;57054;51.978;4.498;2023-08-01T11:27:27;100104.44;;;16.54;98.26
69784;BME280;57054;51.978;4.498;2023-08-01T11:29:53;100102.50;;;16.56;98.42
69784;BME280;57054;51.978;4.498;2023-08-01T11:32:19;100100.47;;;16.60;98.93
69784;BME280;57054;51.978;4.498;2023-08-01T11:34:46;100101.06;;;16.63;98.80
69784;BME280;57054;51.978;4.498;2023-08-01T11:37:15;100101.56;;;16.68;98.46
69784;BME280;57054;51.978;4.498;2023-08-01T11:39:41;100111.03;;;16.71;97.92
69784;BME280;57054;51.978;4.498;2023-08-01T11:42:06;100108.28;;;16.73;97.44
69784;BME280;57054;51.978;4.498;2023-08-01T11:44:32;100110.69;;;16.76;97.34
69784;BME280;57054;51.978;4.498;2023-08-01T11:46:57;100111.63;;;16.75;97.16
69784;BME280;57054;51.978;4.498;2023-08-01T11:49:23;100116.94;;;16.75;97.26
69784;BME280;57054;51.978;4.498;2023-08-01T11:51:49;100123.91;;;16.76;97.15
69784;BME280;57054;51.978;4.498;2023-08-01T11:54:14;100113.22;;;16.77;97.40
69784;BME280;57054;51.978;4.498;2023-08-01T11:56:41;100113.06;;;16.79;97.58
69784;BME280;57054;51.978;4.498;2023-08-01T11:59:17;100111.94;;;16.83;97.10
69784;BME280;57054;51.978;4.498;2023-08-01T12:01:44;100106.50;;;16.84;96.47
69784;BME280;57054;51.978;4.498;2023-08-01T12:04:10;100117.06;;;16.84;95.97
69784;BME280;57054;51.978;4.498;2023-08-01T12:06:35;100118.88;;;16.84;95.84
69784;BME280;57054;51.978;4.498;2023-08-01T12:09:11;100121.53;;;16.84;95.75
69784;BME280;57054;51.978;4.498;2023-08-01T12:11:38;100125.16;;;16.83;95.74
69784;BME280;57054;51.978;4.498;2023-08-01T12:14:11;100126.69;;;16.85;95.90
69784;BME280;57054;51.978;4.498;2023-08-01T12:16:38;100125.75;;;16.86;95.26
69784;BME280;57054;51.978;4.498;2023-08-01T12:19:04;100138.97;;;16.86;95.20
69784;BME280;57054;51.978;4.498;2023-08-01T12:21:31;100131.03;;;16.86;94.98
69784;BME280;57054;51.978;4.498;2023-08-01T12:23:57;100142.44;;;16.87;94.90
69784;BME280;57054;51.978;4.498;2023-08-01T12:26:23;100141.34;;;16.89;95.12
69784;BME280;57054;51.978;4.498;2023-08-01T12:28:48;100137.88;;;16.89;94.80
69784;BME280;57054;51.978;4.498;2023-08-01T12:31:18;100137.88;;;16.89;94.52
69784;BME280;57054;51.978;4.498;2023-08-01T12:33:44;100139.56;;;16.90;94.17
69784;BME280;57054;51.978;4.498;2023-08-01T12:36:11;100139.44;;;16.92;93.77
69784;BME280;57054;51.978;4.498;2023-08-01T12:38:36;100135.72;;;16.94;94.21
69784;BME280;57054;51.978;4.498;2023-08-01T12:41:01;100146.19;;;16.96;94.27
69784;BME280;57054;51.978;4.498;2023-08-01T12:43:27;100141.63;;;16.98;94.11
69784;BME280;57054;51.978;4.498;2023-08-01T12:45:53;100128.50;;;16.96;93.96
69784;BME280;57054;51.978;4.498;2023-08-01T12:48:18;100136.31;;;16.98;93.95
69784;BME280;57054;51.978;4.498;2023-08-01T12:50:45;100141.50;;;16.99;94.10